Terminal Aerodrome Forecast
Issued by NWS Cleveland, OH

Home | Current Version | Previous Version | Graphics & Text | Print | Product List | Glossary On
Versions: 1 2 3 4 5 6 7 8 9 10 11 12 13 14 15 16
000
FTUS41 KCLE 281700
TAFCAK
TAF
KCAK 281738Z 2818/2918 22020G30KT P6SM SCT035 BKN080
     FM281900 22020G30KT 6SM -SHRA VCTS BKN035CB OVC060
      TEMPO 2819/2821 22025G35KT 3SM SHRA BKN028
     FM282100 24012G22KT P6SM VCSH BKN025
     FM282300 25012KT P6SM SCT025 OVC150
     FM291500 25012G20KT P6SM BKN035=

USA.gov is the U.S. government's official web portal to all federal, state and local government web resources and services.